Time,TemperatureF,DewpointF,PressureIn,WindDirection,WindDirectionDegrees,WindSpeedMPH,WindSpeedGustMPH,Humidity,HourlyPrecipIn,Conditions,Clouds,dailyrainin,SoftwareType,DateUTC
2013-03-23 00:00:00,32.7,20.3,30.05,North,11,0.0,0.0,60,0.00,CLR,SKC,0.00,WeatherDisplay:10.37,2013-03-23 05:00:00,
2013-03-23 00:05:00,32.6,21.0,30.05,North,6,0.0,0.0,62,0.00,CLR,SKC,0.00,WeatherDisplay:10.37,2013-03-23 05:05:00,
2013-03-23 00:10:00,32.5,20.9,30.05,North,4,1.2,1.2,62,0.00,CLR,SKC,0.00,WeatherDisplay:10.37,2013-03-23 05:10:00,
2013-03-23 00:15:00,32.5,20.9,30.05,NNE,20,0.0,0.0,62,0.00,CLR,SKC,0.00,WeatherDisplay:10.37,2013-03-23 05:15:00,
2013-03-23 00:20:00,32.4,21.2,30.04,North,7,0.0,0.0,63,0.00,CLR,SKC,0.00,WeatherDisplay:10.37,2013-03-23 05:20:00,
2013-03-23 00:25:00,32.4,20.4,30.05,North,350,0.0,0.0,61,0.00,CLR,SKC,0.00,WeatherDisplay:10.37,2013-03-23 05:25:00,
2013-03-23 00:30:00,32.4,20.8,30.04,North,350,0.0,0.0,62,0.00,CLR,SKC,0.00,WeatherDisplay:10.37,2013-03-23 05:30:00,
2013-03-23 00:35:00,32.3,21.1,30.04,North,350,0.0,0.0,63,0.00,CLR,SKC,0.00,WeatherDisplay:10.37,2013-03-23 05:35:00,
2013-03-23 00:40:00,32.3,21.1,30.04,North,349,0.0,0.0,63,0.00,CLR,SKC,0.00,WeatherDisplay:10.37,2013-03-23 05:40:00,
2013-03-23 00:45:00,32.3,21.1,30.04,North,349,0.0,0.0,63,0.00,CLR,SKC,0.00,WeatherDisplay:10.37,2013-03-23 05:45:00,
2013-03-23 00:50:00,32.3,21.1,30.04,North,350,0.0,0.0,63,0.00,CLR,SKC,0.00,WeatherDisplay:10.37,2013-03-23 05:50:00,
2013-03-23 00:55:00,32.2,21.0,30.04,North,359,0.0,0.0,63,0.00,CLR,SKC,0.00,WeatherDisplay:10.37,2013-03-23 05:55:00,
2013-03-23 01:00:00,32.2,21.0,30.04,North,359,0.0,0.0,63,0.00,CLR,SKC,0.00,WeatherDisplay:10.37,2013-03-23 06:00:00,
2013-03-23 01:05:00,32.2,21.0,30.05,North,359,0.0,0.0,63,0.00,CLR,SKC,0.00,WeatherDisplay:10.37,2013-03-23 06:05:00,
2013-03-23 01:10:00,32.2,21.0,30.05,North,359,0.0,0.0,63,0.00,CLR,SKC,0.00,WeatherDisplay:10.37,2013-03-23 06:10:00,
2013-03-23 01:15:00,32.1,21.3,30.05,North,359,0.0,0.0,64,0.00,CLR,SKC,0.00,WeatherDisplay:10.37,2013-03-23 06:15:00,
2013-03-23 01:20:00,32.0,21.2,30.05,North,359,0.0,0.0,64,0.00,CLR,SKC,0.00,WeatherDisplay:10.37,2013-03-23 06:20:00,
2013-03-23 01:25:00,32.0,21.2,30.04,North,357,0.0,0.0,64,0.00,CLR,SKC,0.00,WeatherDisplay:10.37,2013-03-23 06:25:00,
2013-03-23 01:30:00,32.0,21.6,30.04,North,356,0.0,0.0,65,0.00,CLR,SKC,0.00,WeatherDisplay:10.37,2013-03-23 06:30:00,
2013-03-23 01:35:00,32.0,21.6,30.04,North,356,0.0,0.0,65,0.00,CLR,SKC,0.00,WeatherDisplay:10.37,2013-03-23 06:35:00,
2013-03-23 01:40:00,32.0,21.6,30.04,NNW,347,0.0,0.0,65,0.00,CLR,SKC,0.00,WeatherDisplay:10.37,2013-03-23 06:40:00,
2013-03-23 01:45:00,31.9,21.5,30.04,NNW,345,1.2,1.2,65,0.00,CLR,SKC,0.00,WeatherDisplay:10.37,2013-03-23 06:45:00,
2013-03-23 01:50:00,31.9,21.5,30.04,NNW,344,0.0,0.0,65,0.00,CLR,SKC,0.00,WeatherDisplay:10.37,2013-03-23 06:50:00,
2013-03-23 01:55:00,31.9,21.5,30.05,NNW,344,0.0,0.0,65,0.00,CLR,SKC,0.00,WeatherDisplay:10.37,2013-03-23 06:55:00,
2013-03-23 02:00:00,31.9,21.5,30.05,NNW,344,0.0,0.0,65,0.00,CLR,SKC,0.00,WeatherDisplay:10.37,2013-03-23 07:00:00,
2013-03-23 02:05:00,31.8,21.4,30.05,NNW,344,0.0,0.0,65,0.00,CLR,SKC,0.00,WeatherDisplay:10.37,2013-03-23 07:05:00,
2013-03-23 02:10:00,31.8,21.7,30.05,NNW,344,0.0,0.0,66,0.00,CLR,SKC,0.00,WeatherDisplay:10.37,2013-03-23 07:10:00,
2013-03-23 02:15:00,31.7,21.6,30.05,NNW,344,0.0,0.0,66,0.00,CLR,SKC,0.00,WeatherDisplay:10.37,2013-03-23 07:15:00,
2013-03-23 02:20:00,31.7,21.6,30.05,NW,321,0.0,0.0,66,0.00,CLR,SKC,0.00,WeatherDisplay:10.37,2013-03-23 07:20:00,
2013-03-23 02:25:00,31.6,21.5,30.06,NW,321,0.0,0.0,66,0.00,CLR,SKC,0.00,WeatherDisplay:10.37,2013-03-23 07:25:00,
2013-03-23 02:30:00,31.5,21.8,30.06,NW,321,0.0,0.0,67,0.00,CLR,SKC,0.00,WeatherDisplay:10.37,2013-03-23 07:30:00,
2013-03-23 02:35:00,31.5,21.8,30.06,NW,321,0.0,0.0,67,0.00,CLR,SKC,0.00,WeatherDisplay:10.37,2013-03-23 07:35:00,
2013-03-23 02:40:00,31.5,21.8,30.06,NW,314,0.0,0.0,67,0.00,CLR,SKC,0.00,WeatherDisplay:10.37,2013-03-23 07:40:00,
2013-03-23 02:45:00,31.5,21.4,30.06,NW,314,0.0,0.0,66,0.00,CLR,SKC,0.00,WeatherDisplay:10.37,2013-03-23 07:45:00,
2013-03-23 02:50:00,31.5,21.8,30.06,NW,314,0.0,0.0,67,0.00,CLR,SKC,0.00,WeatherDisplay:10.37,2013-03-23 07:50:00,
2013-03-23 02:56:00,31.5,21.8,30.05,NW,319,2.3,2.3,67,0.00,CLR,SKC,0.00,WeatherDisplay:10.37,2013-03-23 07:56:00,
2013-03-23 03:00:00,31.5,21.4,30.06,WNW,295,0.0,0.0,66,0.00,CLR,SKC,0.00,WeatherDisplay:10.37,2013-03-23 08:00:00,
2013-03-23 03:06:00,31.5,21.8,30.06,WNW,295,0.0,0.0,67,0.00,CLR,SKC,0.00,WeatherDisplay:10.37,2013-03-23 08:06:00,
2013-03-23 03:11:00,31.5,21.8,30.05,NW,321,1.2,0.0,67,0.00,CLR,SKC,0.00,WeatherDisplay:10.37,2013-03-23 08:11:00,
2013-03-23 03:16:00,31.5,21.8,30.05,NW,326,2.3,2.3,67,0.00,CLR,SKC,0.00,WeatherDisplay:10.37,2013-03-23 08:16:00,
2013-03-23 03:21:00,31.5,21.4,30.05,NW,311,2.3,2.3,66,0.00,CLR,SKC,0.00,WeatherDisplay:10.37,2013-03-23 08:21:00,
2013-03-23 03:26:00,31.5,21.8,30.05,NW,310,2.3,2.3,67,0.00,CLR,SKC,0.00,WeatherDisplay:10.37,2013-03-23 08:26:00,
2013-03-23 03:31:00,31.4,21.7,30.05,WNW,293,2.3,2.3,67,0.00,CLR,SKC,0.00,WeatherDisplay:10.37,2013-03-23 08:31:00,
2013-03-23 03:36:00,31.4,21.7,30.04,NW,305,3.2,3.2,67,0.00,CLR,SKC,0.00,WeatherDisplay:10.37,2013-03-23 08:36:00,
2013-03-23 03:41:00,31.4,21.3,30.04,NNW,328,4.6,4.6,66,0.00,CLR,SKC,0.00,WeatherDisplay:10.37,2013-03-23 08:41:00,
2013-03-23 03:46:00,31.5,21.4,30.04,NW,315,4.6,4.6,66,0.00,CLR,SKC,0.00,WeatherDisplay:10.37,2013-03-23 08:46:00,
2013-03-23 03:51:00,31.4,21.3,30.03,NW,318,4.6,4.6,66,0.00,CLR,SKC,0.00,WeatherDisplay:10.37,2013-03-23 08:51:00,
2013-03-23 03:56:00,31.4,21.0,30.03,NW,313,6.9,6.9,65,0.00,CLR,SKC,0.00,WeatherDisplay:10.37,2013-03-23 08:56:00,
2013-03-23 04:01:00,31.3,20.9,30.02,NW,316,7.4,7.4,65,0.00,CLR,SKC,0.00,WeatherDisplay:10.37,2013-03-23 09:01:00,
2013-03-23 04:06:00,31.0,21.0,30.01,NNW,328,6.9,6.9,66,0.00,CLR,SKC,0.00,WeatherDisplay:10.37,2013-03-23 09:06:00,
2013-03-23 04:11:00,30.7,21.0,30.02,NW,326,6.9,6.9,67,0.00,CLR,SKC,0.00,WeatherDisplay:10.37,2013-03-23 09:11:00,
2013-03-23 04:16:00,30.4,20.7,30.02,NW,309,8.1,8.1,67,0.00,CLR,SKC,0.00,WeatherDisplay:10.37,2013-03-23 09:16:00,
2013-03-23 04:21:00,30.2,20.9,30.03,North,352,4.6,4.6,68,0.00,CLR,SKC,0.00,WeatherDisplay:10.37,2013-03-23 09:21:00,
2013-03-23 04:26:00,30.0,20.7,30.03,NNW,332,4.2,4.2,68,0.00,CLR,SKC,0.00,WeatherDisplay:10.37,2013-03-23 09:26:00,
2013-03-23 04:31:00,29.9,21.0,30.02,NNW,339,4.6,4.6,69,0.00,CLR,SKC,0.00,WeatherDisplay:10.37,2013-03-23 09:31:00,
2013-03-23 04:36:00,29.9,21.0,30.02,NNW,331,4.2,4.2,69,0.00,CLR,SKC,0.00,WeatherDisplay:10.37,2013-03-23 09:36:00,
2013-03-23 04:42:00,29.8,20.9,30.03,NNW,344,3.5,3.5,69,0.00,CLR,SKC,0.00,WeatherDisplay:10.37,2013-03-23 09:42:00,
2013-03-23 04:47:00,29.9,21.0,30.04,NW,316,2.3,2.3,69,0.00,CLR,SKC,0.00,WeatherDisplay:10.37,2013-03-23 09:47:00,
2013-03-23 04:52:00,30.0,21.1,30.05,NW,310,3.5,3.5,69,0.00,CLR,SKC,0.00,WeatherDisplay:10.37,2013-03-23 09:52:00,
2013-03-23 04:57:00,30.0,21.4,30.05,WNW,294,1.2,1.2,70,0.00,CLR,SKC,0.00,WeatherDisplay:10.37,2013-03-23 09:57:00,
2013-03-23 05:02:00,30.0,21.4,30.06,NW,310,1.2,1.2,70,0.00,CLR,SKC,0.00,WeatherDisplay:10.37,2013-03-23 10:02:00,
2013-03-23 05:07:00,30.1,21.8,30.06,WNW,300,2.3,2.3,71,0.00,CLR,SKC,0.00,WeatherDisplay:10.37,2013-03-23 10:07:00,
2013-03-23 05:12:00,30.1,21.8,30.05,NW,316,2.3,2.3,71,0.00,CLR,SKC,0.00,WeatherDisplay:10.37,2013-03-23 10:12:00,
2013-03-23 05:17:00,30.2,21.9,30.05,NW,316,4.6,4.6,71,0.00,CLR,SKC,0.00,WeatherDisplay:10.37,2013-03-23 10:17:00,
2013-03-23 05:22:00,30.3,22.4,30.05,NW,307,2.3,2.3,72,0.00,CLR,SKC,0.00,WeatherDisplay:10.37,2013-03-23 10:22:00,
2013-03-23 05:27:00,30.3,22.4,30.06,NW,319,2.3,2.3,72,0.00,CLR,SKC,0.00,WeatherDisplay:10.37,2013-03-23 10:27:00,
2013-03-23 05:32:00,30.4,22.1,30.06,NW,325,3.5,3.5,71,0.00,CLR,SKC,0.00,WeatherDisplay:10.37,2013-03-23 10:32:00,
2013-03-23 05:37:00,30.5,22.2,30.06,NW,311,3.5,3.5,71,0.00,CLR,SKC,0.00,WeatherDisplay:10.37,2013-03-23 10:37:00,
2013-03-23 05:45:00,30.6,22.6,30.06,NW,314,3.2,3.2,72,0.00,CLR,SKC,0.00,WeatherDisplay:10.37,2013-03-23 10:45:00,
2013-03-23 05:50:00,30.5,22.5,30.06,NW,306,3.5,3.5,72,0.00,CLR,SKC,0.00,WeatherDisplay:10.37,2013-03-23 10:50:00,
2013-03-23 05:55:00,30.6,23.0,30.06,NW,315,3.5,3.5,73,0.00,CLR,SKC,0.00,WeatherDisplay:10.37,2013-03-23 10:55:00,
2013-03-23 06:00:00,30.6,23.0,30.07,NW,325,5.8,5.8,73,0.00,CLR,SKC,0.00,WeatherDisplay:10.37,2013-03-23 11:00:00,
2013-03-23 06:05:00,30.6,23.0,30.07,NW,314,2.3,2.3,73,0.00,CLR,SKC,0.00,WeatherDisplay:10.37,2013-03-23 11:05:00,
2013-03-23 06:10:00,30.6,23.0,30.07,NW,309,4.2,4.2,73,0.00,CLR,SKC,0.00,WeatherDisplay:10.37,2013-03-23 11:10:00,
2013-03-23 06:15:00,30.7,23.1,30.07,NW,317,4.6,4.6,73,0.00,CLR,SKC,0.00,WeatherDisplay:10.37,2013-03-23 11:15:00,
2013-03-23 06:20:00,30.7,23.1,30.07,WNW,300,4.6,4.6,73,0.00,CLR,SKC,0.00,WeatherDisplay:10.37,2013-03-23 11:20:00,
2013-03-23 06:25:00,30.7,23.1,30.08,NW,321,4.6,4.6,73,0.00,CLR,SKC,0.00,WeatherDisplay:10.37,2013-03-23 11:25:00,
2013-03-23 06:30:00,30.7,23.4,30.08,NNW,329,4.6,4.6,74,0.00,CLR,SKC,0.00,WeatherDisplay:10.37,2013-03-23 11:30:00,
2013-03-23 06:35:00,30.7,23.4,30.08,NW,322,4.6,4.6,74,0.00,CLR,SKC,0.00,WeatherDisplay:10.37,2013-03-23 11:35:00,
2013-03-23 06:40:00,30.7,23.4,30.08,NNW,330,6.9,6.9,74,0.00,CLR,SKC,0.00,WeatherDisplay:10.37,2013-03-23 11:40:00,
2013-03-23 06:45:00,30.6,23.3,30.08,NNW,328,6.9,6.9,74,0.00,CLR,SKC,0.00,WeatherDisplay:10.37,2013-03-23 11:45:00,
2013-03-23 06:50:00,30.6,23.6,30.08,NW,308,4.6,4.6,75,0.00,CLR,SKC,0.00,WeatherDisplay:10.37,2013-03-23 11:50:00,
2013-03-23 06:55:00,30.6,23.6,30.07,NNW,332,4.6,4.6,75,0.00,CLR,SKC,0.00,WeatherDisplay:10.37,2013-03-23 11:55:00,
2013-03-23 07:00:00,30.6,23.6,30.08,NNW,334,6.9,6.9,75,0.00,CLR,SKC,0.00,WeatherDisplay:10.37,2013-03-23 12:00:00,
2013-03-23 07:05:00,30.6,23.6,30.07,NNW,333,6.4,6.4,75,0.00,CLR,SKC,0.00,WeatherDisplay:10.37,2013-03-23 12:05:00,
2013-03-23 07:10:00,30.6,23.6,30.07,NW,320,6.9,6.9,75,0.00,CLR,SKC,0.00,WeatherDisplay:10.37,2013-03-23 12:10:00,
2013-03-23 07:15:00,30.5,23.8,30.06,NW,322,6.9,6.9,76,0.00,CLR,SKC,0.00,WeatherDisplay:10.37,2013-03-23 12:15:00,
2013-03-23 07:20:00,30.5,23.8,30.06,NW,324,6.9,6.9,76,0.00,CLR,SKC,0.00,WeatherDisplay:10.37,2013-03-23 12:20:00,
2013-03-23 07:26:00,30.4,23.7,30.06,NW,326,6.9,6.9,76,0.00,CLR,SKC,0.00,WeatherDisplay:10.37,2013-03-23 12:26:00,
2013-03-23 07:31:00,30.4,23.7,30.06,NNW,338,7.4,7.4,76,0.00,CLR,SKC,0.00,WeatherDisplay:10.37,2013-03-23 12:31:00,
2013-03-23 07:36:00,30.5,23.8,30.06,NW,326,10.6,10.6,76,0.00,CLR,SKC,0.00,WeatherDisplay:10.37,2013-03-23 12:36:00,
2013-03-23 07:41:00,30.5,23.8,30.07,NW,326,5.8,5.8,76,0.00,CLR,SKC,0.00,WeatherDisplay:10.37,2013-03-23 12:41:00,
2013-03-23 07:46:00,30.6,23.9,30.07,NW,324,6.9,6.9,76,0.00,CLR,SKC,0.00,WeatherDisplay:10.37,2013-03-23 12:46:00,
2013-03-23 07:51:00,30.6,23.9,30.08,NW,316,4.6,4.6,76,0.00,CLR,SKC,0.00,WeatherDisplay:10.37,2013-03-23 12:51:00,
2013-03-23 07:56:00,30.6,23.9,30.08,NW,323,7.4,7.4,76,0.00,CLR,SKC,0.00,WeatherDisplay:10.37,2013-03-23 12:56:00,
2013-03-23 08:01:00,30.7,24.0,30.08,NNW,332,7.4,7.4,76,0.00,CLR,SKC,0.00,WeatherDisplay:10.37,2013-03-23 13:01:00,
2013-03-23 08:06:00,30.7,24.3,30.08,NW,319,6.9,6.9,77,0.00,CLR,SKC,0.00,WeatherDisplay:10.37,2013-03-23 13:06:00,
2013-03-23 08:11:00,30.7,24.3,30.08,NW,324,6.9,6.9,77,0.00,CLR,SKC,0.00,WeatherDisplay:10.37,2013-03-23 13:11:00,
2013-03-23 08:17:00,30.7,24.3,30.07,NW,312,7.4,7.4,77,0.00,CLR,SKC,0.00,WeatherDisplay:10.37,2013-03-23 13:17:00,
2013-03-23 08:22:00,30.8,24.4,30.06,NNW,335,10.6,10.6,77,0.00,CLR,SKC,0.00,WeatherDisplay:10.37,2013-03-23 13:22:00,
2013-03-23 08:27:00,31.0,24.6,30.06,NNW,340,10.4,10.4,77,0.00,CLR,SKC,0.00,WeatherDisplay:10.37,2013-03-23 13:27:00,
2013-03-23 08:33:00,31.2,24.8,30.06,NW,324,10.4,10.4,77,0.00,CLR,SKC,0.00,WeatherDisplay:10.37,2013-03-23 13:33:00,
2013-03-23 08:38:00,31.3,24.6,30.06,NW,326,11.7,11.7,76,0.00,CLR,SKC,0.00,WeatherDisplay:10.37,2013-03-23 13:38:00,
2013-03-23 08:43:00,31.4,25.0,30.07,NNW,334,11.7,11.7,77,0.00,CLR,SKC,0.00,WeatherDisplay:10.37,2013-03-23 13:43:00,
2013-03-23 08:48:00,31.4,24.7,30.06,NNW,338,9.5,9.5,76,0.00,CLR,SKC,0.00,WeatherDisplay:10.37,2013-03-23 13:48:00,
2013-03-23 08:53:00,31.5,24.8,30.07,NW,314,12.7,12.7,76,0.00,CLR,SKC,0.00,WeatherDisplay:10.37,2013-03-23 13:53:00,
2013-03-23 08:58:00,31.6,24.9,30.08,NNW,339,11.7,11.7,76,0.00,CLR,SKC,0.00,WeatherDisplay:10.37,2013-03-23 13:58:00,
2013-03-23 09:03:00,31.7,25.0,30.09,NW,319,7.4,7.4,76,0.00,CLR,SKC,0.00,WeatherDisplay:10.37,2013-03-23 14:03:00,
2013-03-23 09:08:00,31.8,25.1,30.10,NNW,329,7.4,7.4,76,0.00,CLR,SKC,0.00,WeatherDisplay:10.37,2013-03-23 14:08:00,
2013-03-23 09:13:00,32.0,25.3,30.10,NW,321,6.9,6.9,76,0.00,CLR,SKC,0.00,WeatherDisplay:10.37,2013-03-23 14:13:00,
2013-03-23 09:18:00,32.0,25.0,30.10,NW,313,6.9,6.9,75,0.00,CLR,SKC,0.00,WeatherDisplay:10.37,2013-03-23 14:18:00,
2013-03-23 09:23:00,32.1,25.1,30.11,NNW,332,6.9,6.9,75,0.00,CLR,SKC,0.00,WeatherDisplay:10.37,2013-03-23 14:23:00,
2013-03-23 09:28:00,32.0,25.0,30.11,NW,316,4.6,4.6,75,0.00,CLR,SKC,0.00,WeatherDisplay:10.37,2013-03-23 14:28:00,
2013-03-23 09:33:00,32.2,25.2,30.11,NW,321,9.5,9.5,75,0.00,CLR,SKC,0.00,WeatherDisplay:10.37,2013-03-23 14:33:00,
2013-03-23 09:38:00,32.1,24.7,30.10,NW,321,8.5,8.5,74,0.00,CLR,SKC,0.00,WeatherDisplay:10.37,2013-03-23 14:38:00,
2013-03-23 09:43:00,32.2,24.8,30.10,NW,314,8.1,8.1,74,0.00,CLR,SKC,0.00,WeatherDisplay:10.37,2013-03-23 14:43:00,
2013-03-23 09:48:00,32.3,24.9,30.10,NW,308,7.4,7.4,74,0.00,CLR,SKC,0.00,WeatherDisplay:10.37,2013-03-23 14:48:00,
2013-03-23 09:53:00,32.2,24.8,30.11,NW,309,8.5,8.5,74,0.00,CLR,SKC,0.00,WeatherDisplay:10.37,2013-03-23 14:53:00,
2013-03-23 09:58:00,32.4,25.4,30.10,WNW,302,6.9,6.9,75,0.00,CLR,SKC,0.00,WeatherDisplay:10.37,2013-03-23 14:58:00,
2013-03-23 10:03:00,32.5,25.1,30.10,NW,314,10.6,10.6,74,0.00,CLR,SKC,0.00,WeatherDisplay:10.37,2013-03-23 15:03:00,
2013-03-23 10:08:00,32.7,25.3,30.10,NNW,332,8.5,8.5,74,0.00,CLR,SKC,0.00,WeatherDisplay:10.37,2013-03-23 15:08:00,
2013-03-23 10:13:00,32.9,25.2,30.11,NW,326,8.5,8.5,73,0.00,CLR,SKC,0.00,WeatherDisplay:10.37,2013-03-23 15:13:00,
2013-03-23 10:18:00,32.9,25.2,30.11,NW,323,10.6,10.6,73,0.00,CLR,SKC,0.00,WeatherDisplay:10.37,2013-03-23 15:18:00,
2013-03-23 10:24:00,32.9,24.9,30.11,NNW,330,7.4,7.4,72,0.00,CLR,SKC,0.00,WeatherDisplay:10.37,2013-03-23 15:24:00,
2013-03-23 10:29:00,33.1,25.1,30.11,NW,325,9.2,9.2,72,0.00,CLR,SKC,0.00,WeatherDisplay:10.37,2013-03-23 15:29:00,
2013-03-23 10:34:00,32.9,24.5,30.12,NNW,328,7.4,7.4,71,0.00,CLR,SKC,0.00,WeatherDisplay:10.37,2013-03-23 15:34:00,
2013-03-23 10:39:00,32.8,24.4,30.12,NW,320,10.6,10.6,71,0.00,CLR,SKC,0.00,WeatherDisplay:10.37,2013-03-23 15:39:00,
2013-03-23 10:44:00,32.9,24.5,30.12,NW,320,11.5,11.5,71,0.00,CLR,SKC,0.00,WeatherDisplay:10.37,2013-03-23 15:44:00,
2013-03-23 10:49:00,33.0,24.6,30.12,NNW,337,8.5,8.5,71,0.00,CLR,SKC,0.00,WeatherDisplay:10.37,2013-03-23 15:49:00,
2013-03-23 10:54:00,33.2,24.8,30.11,NW,311,8.5,8.5,71,0.00,CLR,SKC,0.00,WeatherDisplay:10.37,2013-03-23 15:54:00,
2013-03-23 10:59:00,33.4,24.3,30.12,NW,310,9.5,9.5,69,0.00,CLR,SKC,0.00,WeatherDisplay:10.37,2013-03-23 15:59:00,
2013-03-23 11:04:00,33.5,24.8,30.11,NW,311,6.9,6.9,70,0.00,CLR,SKC,0.00,WeatherDisplay:10.37,2013-03-23 16:04:00,
2013-03-23 11:09:00,33.9,24.8,30.11,NW,306,7.4,7.4,69,0.00,CLR,SKC,0.00,WeatherDisplay:10.37,2013-03-23 16:09:00,
2013-03-23 11:14:00,34.1,24.6,30.11,NW,326,9.5,9.5,68,0.00,CLR,SKC,0.00,WeatherDisplay:10.37,2013-03-23 16:14:00,
2013-03-23 11:19:00,33.8,24.4,30.11,NNW,338,6.9,6.9,68,0.00,CLR,SKC,0.00,WeatherDisplay:10.37,2013-03-23 16:19:00,
2013-03-23 11:24:00,34.0,24.5,30.10,NW,308,7.4,7.4,68,0.00,CLR,SKC,0.00,WeatherDisplay:10.37,2013-03-23 16:24:00,
2013-03-23 11:29:00,34.0,24.2,30.11,NNW,347,8.5,8.5,67,0.00,CLR,SKC,0.00,WeatherDisplay:10.37,2013-03-23 16:29:00,
2013-03-23 11:34:00,33.9,24.1,30.11,NNW,331,8.5,8.5,67,0.00,CLR,SKC,0.00,WeatherDisplay:10.37,2013-03-23 16:34:00,
2013-03-23 11:39:00,33.8,24.0,30.10,NNW,329,9.5,9.5,67,0.00,CLR,SKC,0.00,WeatherDisplay:10.37,2013-03-23 16:39:00,
2013-03-23 11:44:00,34.3,24.1,30.10,NNW,327,11.5,11.5,66,0.00,CLR,SKC,0.00,WeatherDisplay:10.37,2013-03-23 16:44:00,
2013-03-23 11:49:00,34.6,24.4,30.10,NNW,341,11.7,11.7,66,0.00,CLR,SKC,0.00,WeatherDisplay:10.37,2013-03-23 16:49:00,
2013-03-23 11:54:00,34.9,24.7,30.09,NNW,332,11.5,11.5,66,0.00,CLR,SKC,0.00,WeatherDisplay:10.37,2013-03-23 16:54:00,
2013-03-23 11:59:00,35.3,24.3,30.08,NW,321,12.7,12.7,64,0.00,CLR,SKC,0.00,WeatherDisplay:10.37,2013-03-23 16:59:00,
2013-03-23 12:04:00,35.8,24.4,30.08,NW,311,15.9,15.9,63,0.00,CLR,SKC,0.00,WeatherDisplay:10.37,2013-03-23 17:04:00,
2013-03-23 12:09:00,36.5,25.5,30.08,NNW,330,14.8,14.8,64,0.00,CLR,SKC,0.00,WeatherDisplay:10.37,2013-03-23 17:09:00,
2013-03-23 12:14:00,36.3,24.5,30.07,WNW,300,16.1,16.1,62,0.00,CLR,SKC,0.00,WeatherDisplay:10.37,2013-03-23 17:14:00,
2013-03-23 12:19:00,36.2,23.6,30.08,NNW,335,18.4,18.4,60,0.00,CLR,SKC,0.00,WeatherDisplay:10.37,2013-03-23 17:19:00,
2013-03-23 12:24:00,35.6,23.9,30.07,NNW,332,12.7,12.7,62,0.00,CLR,SKC,0.00,WeatherDisplay:10.37,2013-03-23 17:24:00,
2013-03-23 12:29:00,35.5,23.4,30.07,NNW,343,18.0,18.0,61,0.00,CLR,SKC,0.00,WeatherDisplay:10.37,2013-03-23 17:29:00,
2013-03-23 12:34:00,35.5,23.0,30.07,NW,304,15.0,15.0,60,0.00,CLR,SKC,0.00,WeatherDisplay:10.37,2013-03-23 17:34:00,
2013-03-23 12:39:00,35.2,23.1,30.07,WNW,299,13.8,13.8,61,0.00,CLR,SKC,0.00,WeatherDisplay:10.37,2013-03-23 17:39:00,
2013-03-23 12:44:00,35.2,23.5,30.08,NNW,332,15.0,15.0,62,0.00,CLR,SKC,0.00,WeatherDisplay:10.37,2013-03-23 17:44:00,
2013-03-23 12:49:00,35.1,23.4,30.07,NW,326,12.7,12.7,62,0.00,CLR,SKC,0.00,WeatherDisplay:10.37,2013-03-23 17:49:00,
2013-03-23 12:54:00,35.3,24.0,30.08,WNW,290,10.6,10.6,63,0.00,CLR,SKC,0.00,WeatherDisplay:10.37,2013-03-23 17:54:00,
2013-03-23 12:59:00,35.4,23.7,30.07,NNW,329,15.9,15.9,62,0.00,CLR,SKC,0.00,WeatherDisplay:10.37,2013-03-23 17:59:00,
2013-03-23 13:04:00,35.2,23.1,30.07,WNW,284,11.7,11.7,61,0.00,CLR,SKC,0.00,WeatherDisplay:10.37,2013-03-23 18:04:00,
2013-03-23 13:09:00,35.4,23.7,30.06,NNW,328,13.8,13.8,62,0.00,CLR,SKC,0.00,WeatherDisplay:10.37,2013-03-23 18:09:00,
2013-03-23 13:14:00,35.3,23.6,30.06,NW,324,12.7,12.7,62,0.00,CLR,SKC,0.00,WeatherDisplay:10.37,2013-03-23 18:14:00,
2013-03-23 13:19:00,35.3,23.2,30.06,NNW,333,13.8,13.8,61,0.00,CLR,SKC,0.00,WeatherDisplay:10.37,2013-03-23 18:19:00,
2013-03-23 13:24:00,35.0,22.9,30.06,NW,319,15.0,15.0,61,0.00,CLR,SKC,0.00,WeatherDisplay:10.37,2013-03-23 18:24:00,
2013-03-23 13:29:00,35.1,23.4,30.05,NNW,340,16.1,16.1,62,0.00,CLR,SKC,0.00,WeatherDisplay:10.37,2013-03-23 18:29:00,
2013-03-23 13:34:00,35.0,23.7,30.06,NW,322,8.1,8.1,63,0.00,CLR,SKC,0.00,WeatherDisplay:10.37,2013-03-23 18:34:00,
2013-03-23 13:39:00,35.5,23.8,30.06,NNW,331,11.7,11.7,62,0.00,CLR,SKC,0.00,WeatherDisplay:10.37,2013-03-23 18:39:00,
2013-03-23 13:44:00,35.2,23.5,30.06,NNW,330,12.7,12.7,62,0.00,CLR,SKC,0.00,WeatherDisplay:10.37,2013-03-23 18:44:00,
2013-03-23 13:49:00,35.1,24.1,30.06,NNW,327,10.6,10.6,64,0.00,CLR,SKC,0.00,WeatherDisplay:10.37,2013-03-23 18:49:00,
2013-03-23 13:54:00,35.0,24.8,30.06,NNW,328,9.5,9.5,66,0.00,CLR,SKC,0.00,WeatherDisplay:10.37,2013-03-23 18:54:00,
2013-03-23 13:59:00,34.8,24.2,30.06,NW,321,13.8,13.8,65,0.00,CLR,SKC,0.00,WeatherDisplay:10.37,2013-03-23 18:59:00,
2013-03-23 14:04:00,34.7,25.2,30.06,NNW,327,10.4,10.4,68,0.00,CLR,SKC,0.00,WeatherDisplay:10.37,2013-03-23 19:04:00,
2013-03-23 14:09:00,34.9,25.0,30.05,NNW,336,13.8,13.8,67,0.00,CLR,SKC,0.00,WeatherDisplay:10.37,2013-03-23 19:09:00,
2013-03-23 14:14:00,34.6,25.5,30.05,NW,321,15.0,15.0,69,0.00,CLR,SKC,0.00,WeatherDisplay:10.37,2013-03-23 19:14:00,
2013-03-23 14:20:00,34.1,25.7,30.04,WNW,303,12.7,12.7,71,0.00,CLR,SKC,0.00,WeatherDisplay:10.37,2013-03-23 19:20:00,
2013-03-23 14:25:00,34.0,26.9,30.04,WNW,303,6.9,6.9,75,0.00,CLR,SKC,0.00,WeatherDisplay:10.37,2013-03-23 19:25:00,
2013-03-23 14:30:00,34.1,27.3,30.04,NNW,327,9.5,9.5,76,0.00,CLR,SKC,0.00,WeatherDisplay:10.37,2013-03-23 19:30:00,
2013-03-23 14:35:00,34.3,27.5,30.04,West,281,10.6,10.6,76,0.00,CLR,SKC,0.00,WeatherDisplay:10.37,2013-03-23 19:35:00,
2013-03-23 14:40:00,34.1,26.7,30.03,NW,312,10.4,10.4,74,0.00,CLR,SKC,0.00,WeatherDisplay:10.37,2013-03-23 19:40:00,
2013-03-23 14:45:00,34.2,26.4,30.03,NW,312,12.7,12.7,73,0.00,CLR,SKC,0.00,WeatherDisplay:10.37,2013-03-23 19:45:00,
2013-03-23 14:50:00,34.1,27.0,30.03,NW,310,9.5,9.5,75,0.00,CLR,SKC,0.00,WeatherDisplay:10.37,2013-03-23 19:50:00,
2013-03-23 14:55:00,34.3,26.5,30.03,NW,314,12.7,12.7,73,0.00,CLR,SKC,0.00,WeatherDisplay:10.37,2013-03-23 19:55:00,
2013-03-23 15:00:00,34.1,26.7,30.03,NW,307,12.7,12.7,74,0.00,CLR,SKC,0.00,WeatherDisplay:10.37,2013-03-23 20:00:00,
2013-03-23 15:05:00,34.0,26.9,30.03,NW,312,11.7,11.7,75,0.00,CLR,SKC,0.00,WeatherDisplay:10.37,2013-03-23 20:05:00,
2013-03-23 15:10:00,33.7,27.6,30.03,NW,323,12.7,12.7,78,0.00,CLR,SKC,0.00,WeatherDisplay:10.37,2013-03-23 20:10:00,
2013-03-23 15:15:00,33.2,28.0,30.03,NW,319,8.1,8.1,81,0.00,CLR,SKC,0.00,WeatherDisplay:10.37,2013-03-23 20:15:00,
2013-03-23 15:20:00,32.7,27.8,30.03,NW,309,11.5,11.5,82,0.00,CLR,SKC,0.00,WeatherDisplay:10.37,2013-03-23 20:20:00,
2013-03-23 15:25:00,32.3,27.7,30.03,NW,311,12.7,12.7,83,0.00,CLR,SKC,0.00,WeatherDisplay:10.37,2013-03-23 20:25:00,
2013-03-23 15:30:00,32.3,28.0,30.03,NW,311,11.7,11.7,84,0.00,CLR,SKC,0.00,WeatherDisplay:10.37,2013-03-23 20:30:00,
2013-03-23 15:35:00,32.3,28.6,30.03,NW,304,7.4,7.4,86,0.00,CLR,SKC,0.00,WeatherDisplay:10.37,2013-03-23 20:35:00,
2013-03-23 15:40:00,32.3,28.9,30.03,North,353,9.5,9.5,87,0.00,CLR,SKC,0.00,WeatherDisplay:10.37,2013-03-23 20:40:00,
2013-03-23 15:45:00,32.1,28.4,30.03,WNW,299,12.7,12.7,86,0.00,CLR,SKC,0.00,WeatherDisplay:10.37,2013-03-23 20:45:00,
2013-03-23 15:50:00,31.8,28.4,30.03,NW,309,9.5,9.5,87,0.00,CLR,SKC,0.00,WeatherDisplay:10.37,2013-03-23 20:50:00,
2013-03-23 15:55:00,31.7,28.6,30.03,NW,323,9.5,9.5,88,0.00,CLR,SKC,0.00,WeatherDisplay:10.37,2013-03-23 20:55:00,
2013-03-23 16:00:00,31.5,28.4,30.03,NW,323,12.7,12.7,88,0.00,CLR,SKC,0.00,WeatherDisplay:10.37,2013-03-23 21:00:00,
2013-03-23 16:05:00,31.4,28.5,30.03,WNW,290,10.4,10.4,89,0.00,CLR,SKC,0.00,WeatherDisplay:10.37,2013-03-23 21:05:00,
2013-03-23 16:10:00,31.2,28.6,30.03,NW,312,9.5,9.5,90,0.00,CLR,SKC,0.00,WeatherDisplay:10.37,2013-03-23 21:10:00,
2013-03-23 16:15:00,31.1,28.5,30.03,NW,311,9.5,9.5,90,0.00,CLR,SKC,0.00,WeatherDisplay:10.37,2013-03-23 21:15:00,
2013-03-23 16:20:00,31.1,28.8,30.02,NW,323,8.1,8.1,91,0.00,CLR,SKC,0.00,WeatherDisplay:10.37,2013-03-23 21:20:00,
2013-03-23 16:25:00,31.0,28.7,30.02,NW,305,13.8,13.8,91,0.00,CLR,SKC,0.00,WeatherDisplay:10.37,2013-03-23 21:25:00,
2013-03-23 16:30:00,30.9,28.6,30.02,NW,323,10.6,10.6,91,0.00,CLR,SKC,0.00,WeatherDisplay:10.37,2013-03-23 21:30:00,
2013-03-23 16:35:00,30.9,28.6,30.02,NW,326,9.5,9.5,91,0.00,CLR,SKC,0.00,WeatherDisplay:10.37,2013-03-23 21:35:00,
2013-03-23 16:40:00,31.0,28.7,30.02,WNW,299,11.5,11.5,91,0.00,CLR,SKC,0.00,WeatherDisplay:10.37,2013-03-23 21:40:00,
2013-03-23 16:45:00,31.0,28.7,30.02,NW,325,11.7,11.7,91,0.00,CLR,SKC,0.00,WeatherDisplay:10.37,2013-03-23 21:45:00,
2013-03-23 16:50:00,31.2,29.1,30.02,NNW,339,6.9,6.9,92,0.00,CLR,SKC,0.00,WeatherDisplay:10.37,2013-03-23 21:50:00,
2013-03-23 16:55:00,31.2,28.9,30.02,NNW,329,8.5,8.5,91,0.00,CLR,SKC,0.00,WeatherDisplay:10.37,2013-03-23 21:55:00,
2013-03-23 17:00:00,31.2,28.9,30.02,NNW,332,10.6,10.6,91,0.00,CLR,SKC,0.00,WeatherDisplay:10.37,2013-03-23 22:00:00,
2013-03-23 17:05:00,31.3,29.2,30.03,NNW,335,7.4,7.4,92,0.00,CLR,SKC,0.00,WeatherDisplay:10.37,2013-03-23 22:05:00,
2013-03-23 17:10:00,31.2,29.1,30.03,NNW,330,10.6,10.6,92,0.00,CLR,SKC,0.00,WeatherDisplay:10.37,2013-03-23 22:10:00,
2013-03-23 17:15:00,31.3,29.2,30.03,NW,313,8.5,8.5,92,0.00,CLR,SKC,0.00,WeatherDisplay:10.37,2013-03-23 22:15:00,
2013-03-23 17:20:00,31.2,29.1,30.03,NW,304,6.4,6.4,92,0.00,CLR,SKC,0.00,WeatherDisplay:10.37,2013-03-23 22:20:00,
2013-03-23 17:25:00,31.3,29.2,30.02,NW,317,5.3,5.3,92,0.00,CLR,SKC,0.00,WeatherDisplay:10.37,2013-03-23 22:25:00,
2013-03-23 17:30:00,31.2,29.1,30.02,WNW,288,7.4,7.4,92,0.00,CLR,SKC,0.00,WeatherDisplay:10.37,2013-03-23 22:30:00,
2013-03-23 17:35:00,31.1,29.0,30.03,NW,320,6.9,6.9,92,0.00,CLR,SKC,0.00,WeatherDisplay:10.37,2013-03-23 22:35:00,
2013-03-23 17:40:00,31.2,29.1,30.03,NW,307,6.9,6.9,92,0.00,CLR,SKC,0.00,WeatherDisplay:10.37,2013-03-23 22:40:00,
2013-03-23 17:45:00,31.1,29.0,30.03,NW,315,9.5,9.5,92,0.00,CLR,SKC,0.00,WeatherDisplay:10.37,2013-03-23 22:45:00,
2013-03-23 17:50:00,30.9,28.9,30.03,NNW,335,9.2,9.2,92,0.00,CLR,SKC,0.00,WeatherDisplay:10.37,2013-03-23 22:50:00,
2013-03-23 17:55:00,30.9,28.9,30.03,NW,325,7.4,7.4,92,0.00,CLR,SKC,0.00,WeatherDisplay:10.37,2013-03-23 22:55:00,
2013-03-23 18:00:00,30.9,28.9,30.03,NW,316,7.4,7.4,92,0.00,CLR,SKC,0.00,WeatherDisplay:10.37,2013-03-23 23:00:00,
2013-03-23 18:05:00,30.9,28.9,30.03,NW,316,9.2,9.2,92,0.00,CLR,SKC,0.00,WeatherDisplay:10.37,2013-03-23 23:05:00,
2013-03-23 18:10:00,30.9,28.9,30.03,NW,319,9.5,9.5,92,0.00,CLR,SKC,0.00,WeatherDisplay:10.37,2013-03-23 23:10:00,
2013-03-23 18:15:00,30.8,29.0,30.04,NW,309,6.9,6.9,93,0.00,CLR,SKC,0.00,WeatherDisplay:10.37,2013-03-23 23:15:00,
2013-03-23 18:20:00,30.8,29.0,30.04,WNW,301,10.6,10.6,93,0.00,CLR,SKC,0.00,WeatherDisplay:10.37,2013-03-23 23:20:00,
2013-03-23 18:25:00,30.8,28.8,30.04,WNW,301,8.1,8.1,92,0.00,CLR,SKC,0.00,WeatherDisplay:10.37,2013-03-23 23:25:00,
2013-03-23 18:30:00,30.7,28.7,30.04,NW,317,13.8,13.8,92,0.00,CLR,SKC,0.00,WeatherDisplay:10.37,2013-03-23 23:30:00,
2013-03-23 18:35:00,30.7,28.7,30.04,WNW,294,13.8,13.8,92,0.00,CLR,SKC,0.00,WeatherDisplay:10.37,2013-03-23 23:35:00,
2013-03-23 18:40:00,30.7,28.7,30.05,WNW,285,10.4,10.4,92,0.00,CLR,SKC,0.00,WeatherDisplay:10.37,2013-03-23 23:40:00,
2013-03-23 18:45:00,30.6,28.6,30.05,West,264,11.5,11.5,92,0.00,CLR,SKC,0.00,WeatherDisplay:10.37,2013-03-23 23:45:00,
2013-03-23 18:50:00,30.6,28.6,30.05,WNW,291,11.7,11.7,92,0.00,CLR,SKC,0.00,WeatherDisplay:10.37,2013-03-23 23:50:00,
2013-03-23 18:55:00,30.5,28.5,30.05,NW,314,13.8,13.8,92,0.00,CLR,SKC,0.00,WeatherDisplay:10.37,2013-03-23 23:55:00,
2013-03-23 19:00:00,30.3,28.0,30.05,West,280,16.1,16.1,91,0.00,CLR,SKC,0.00,WeatherDisplay:10.37,2013-03-24 00:00:00,
2013-03-23 19:05:00,30.2,28.2,30.06,NW,307,14.8,14.8,92,0.00,CLR,SKC,0.00,WeatherDisplay:10.37,2013-03-24 00:05:00,
2013-03-23 19:10:00,30.1,27.8,30.06,WNW,302,11.7,11.7,91,0.00,CLR,SKC,0.00,WeatherDisplay:10.37,2013-03-24 00:10:00,
2013-03-23 19:15:00,30.0,27.7,30.06,WNW,289,8.5,8.5,91,0.00,CLR,SKC,0.00,WeatherDisplay:10.37,2013-03-24 00:15:00,
2013-03-23 19:20:00,30.0,28.0,30.06,WNW,301,12.7,12.7,92,0.00,CLR,SKC,0.00,WeatherDisplay:10.37,2013-03-24 00:20:00,
2013-03-23 19:25:00,29.9,27.9,30.06,WNW,302,10.6,10.6,92,0.00,CLR,SKC,0.00,WeatherDisplay:10.37,2013-03-24 00:25:00,
2013-03-23 19:30:00,29.9,27.9,30.06,NW,308,10.4,10.4,92,0.00,CLR,SKC,0.00,WeatherDisplay:10.37,2013-03-24 00:30:00,
2013-03-23 19:35:00,29.9,27.9,30.07,NW,307,8.1,8.1,92,0.00,CLR,SKC,0.00,WeatherDisplay:10.37,2013-03-24 00:35:00,
2013-03-23 19:40:00,29.8,27.8,30.07,NW,309,10.4,10.4,92,0.00,CLR,SKC,0.00,WeatherDisplay:10.37,2013-03-24 00:40:00,
2013-03-23 19:45:00,29.8,27.8,30.07,West,281,13.8,13.8,92,0.00,CLR,SKC,0.00,WeatherDisplay:10.37,2013-03-24 00:45:00,
2013-03-23 19:51:00,29.8,27.8,30.07,WNW,297,11.5,11.5,92,0.00,CLR,SKC,0.00,WeatherDisplay:10.37,2013-03-24 00:51:00,
2013-03-23 19:56:00,29.7,27.7,30.07,WNW,297,11.7,11.7,92,0.00,CLR,SKC,0.00,WeatherDisplay:10.37,2013-03-24 00:56:00,
2013-03-23 20:01:00,29.7,27.7,30.07,WNW,294,11.5,11.5,92,0.00,CLR,SKC,0.00,WeatherDisplay:10.37,2013-03-24 01:01:00,
2013-03-23 20:06:00,29.7,27.7,30.08,WNW,290,8.1,8.1,92,0.00,CLR,SKC,0.00,WeatherDisplay:10.37,2013-03-24 01:06:00,
2013-03-23 20:11:00,29.6,27.6,30.08,WNW,301,11.7,11.7,92,0.00,CLR,SKC,0.00,WeatherDisplay:10.37,2013-03-24 01:11:00,
2013-03-23 20:16:00,29.6,27.6,30.08,West,278,8.5,8.5,92,0.00,CLR,SKC,0.00,WeatherDisplay:10.37,2013-03-24 01:16:00,
2013-03-23 20:21:00,29.6,27.8,30.08,WNW,284,10.6,10.6,93,0.00,CLR,SKC,0.00,WeatherDisplay:10.37,2013-03-24 01:21:00,
2013-03-23 20:26:00,29.6,27.8,30.08,West,274,10.6,10.6,93,0.00,CLR,SKC,0.00,WeatherDisplay:10.37,2013-03-24 01:26:00,
2013-03-23 20:31:00,29.6,27.6,30.08,West,276,12.7,12.7,92,0.00,CLR,SKC,0.00,WeatherDisplay:10.37,2013-03-24 01:31:00,
2013-03-23 20:36:00,29.5,27.5,30.08,WNW,301,12.7,12.7,92,0.00,CLR,SKC,0.00,WeatherDisplay:10.37,2013-03-24 01:36:00,
2013-03-23 20:41:00,29.4,27.4,30.07,West,278,13.8,13.8,92,0.00,CLR,SKC,0.00,WeatherDisplay:10.37,2013-03-24 01:41:00,
2013-03-23 20:46:00,29.4,27.4,30.07,NW,318,8.5,8.5,92,0.00,CLR,SKC,0.00,WeatherDisplay:10.37,2013-03-24 01:46:00,
2013-03-23 20:51:00,29.4,27.6,30.07,WNW,301,9.5,9.5,93,0.00,CLR,SKC,0.00,WeatherDisplay:10.37,2013-03-24 01:51:00,
2013-03-23 20:57:00,29.4,27.6,30.07,WNW,297,10.6,10.6,93,0.00,CLR,SKC,0.00,WeatherDisplay:10.37,2013-03-24 01:57:00,
2013-03-23 21:02:00,29.4,27.6,30.07,WNW,297,8.1,8.1,93,0.00,CLR,SKC,0.00,WeatherDisplay:10.37,2013-03-24 02:02:00,
2013-03-23 21:07:00,29.4,27.6,30.07,NNW,327,7.4,7.4,93,0.00,CLR,SKC,0.00,WeatherDisplay:10.37,2013-03-24 02:07:00,
2013-03-23 21:12:00,29.4,27.6,30.07,NNW,332,8.5,8.5,93,0.00,CLR,SKC,0.00,WeatherDisplay:10.37,2013-03-24 02:12:00,
2013-03-23 21:17:00,29.3,27.5,30.06,WNW,288,8.1,8.1,93,0.00,CLR,SKC,0.00,WeatherDisplay:10.37,2013-03-24 02:17:00,
2013-03-23 21:22:00,29.3,27.3,30.06,WNW,290,16.1,16.1,92,0.00,CLR,SKC,0.00,WeatherDisplay:10.37,2013-03-24 02:22:00,
2013-03-23 21:27:00,29.1,27.1,30.06,WNW,299,11.7,11.7,92,0.00,CLR,SKC,0.00,WeatherDisplay:10.37,2013-03-24 02:27:00,
2013-03-23 21:32:00,28.9,26.9,30.06,WNW,294,12.7,12.7,92,0.00,CLR,SKC,0.00,WeatherDisplay:10.37,2013-03-24 02:32:00,
2013-03-23 21:37:00,28.8,26.8,30.07,WNW,283,13.8,13.8,92,0.00,CLR,SKC,0.00,WeatherDisplay:10.37,2013-03-24 02:37:00,
2013-03-23 21:42:00,28.7,26.4,30.07,WNW,300,13.8,13.8,91,0.00,CLR,SKC,0.00,WeatherDisplay:10.37,2013-03-24 02:42:00,
2013-03-23 21:47:00,28.6,26.6,30.07,WSW,252,13.8,13.8,92,0.00,CLR,SKC,0.00,WeatherDisplay:10.37,2013-03-24 02:47:00,
2013-03-23 21:52:00,28.6,26.6,30.07,WNW,297,13.8,13.8,92,0.00,CLR,SKC,0.00,WeatherDisplay:10.37,2013-03-24 02:52:00,
2013-03-23 21:57:00,28.5,26.5,30.07,WNW,299,10.6,10.6,92,0.00,CLR,SKC,0.00,WeatherDisplay:10.37,2013-03-24 02:57:00,
2013-03-23 22:02:00,28.5,26.5,30.07,WNW,297,10.6,10.6,92,0.00,CLR,SKC,0.00,WeatherDisplay:10.37,2013-03-24 03:02:00,
2013-03-23 22:07:00,28.5,26.5,30.07,WNW,298,10.6,10.6,92,0.00,CLR,SKC,0.00,WeatherDisplay:10.37,2013-03-24 03:07:00,
2013-03-23 22:12:00,28.5,26.2,30.07,WNW,296,10.6,10.6,91,0.00,CLR,SKC,0.00,WeatherDisplay:10.37,2013-03-24 03:12:00,
2013-03-23 22:17:00,28.5,26.2,30.07,WNW,288,16.1,16.1,91,0.00,CLR,SKC,0.00,WeatherDisplay:10.37,2013-03-24 03:17:00,
2013-03-23 22:22:00,28.5,26.2,30.07,WNW,293,12.7,12.7,91,0.00,CLR,SKC,0.00,WeatherDisplay:10.37,2013-03-24 03:22:00,
2013-03-23 22:27:00,28.5,25.9,30.07,WNW,301,11.7,11.7,90,0.00,CLR,SKC,0.00,WeatherDisplay:10.37,2013-03-24 03:27:00,
2013-03-23 22:32:00,28.4,25.6,30.07,NW,310,11.7,11.7,89,0.00,CLR,SKC,0.00,WeatherDisplay:10.37,2013-03-24 03:32:00,
2013-03-23 22:37:00,28.3,25.5,30.06,WNW,293,13.8,13.8,89,0.00,CLR,SKC,0.00,WeatherDisplay:10.37,2013-03-24 03:37:00,
2013-03-23 22:43:00,28.3,25.5,30.06,NW,307,11.7,11.7,89,0.00,CLR,SKC,0.00,WeatherDisplay:10.37,2013-03-24 03:43:00,
2013-03-23 22:48:00,28.1,25.3,30.06,WNW,297,15.0,15.0,89,0.00,CLR,SKC,0.00,WeatherDisplay:10.37,2013-03-24 03:48:00,
2013-03-23 22:53:00,28.0,25.2,30.05,WNW,293,13.8,13.8,89,0.00,CLR,SKC,0.00,WeatherDisplay:10.37,2013-03-24 03:53:00,
2013-03-23 22:58:00,27.9,25.1,30.05,WSW,248,13.8,13.8,89,0.00,CLR,SKC,0.00,WeatherDisplay:10.37,2013-03-24 03:58:00,
2013-03-23 23:00:00,27.8,25.0,30.05,WNW,294,13.8,13.8,89,0.00,CLR,SKC,0.00,WeatherDisplay:10.37,2013-03-24 04:00:00,
2013-03-23 23:05:00,27.8,25.0,30.06,West,278,12.7,12.7,89,0.00,CLR,SKC,0.00,WeatherDisplay:10.37,2013-03-24 04:05:00,
2013-03-23 23:10:00,27.7,24.6,30.06,West,276,10.6,10.6,88,0.00,CLR,SKC,0.00,WeatherDisplay:10.37,2013-03-24 04:10:00,
2013-03-23 23:15:00,27.6,24.8,30.07,WNW,288,12.7,12.7,89,0.00,CLR,SKC,0.00,WeatherDisplay:10.37,2013-03-24 04:15:00,
2013-03-23 23:20:00,27.5,24.4,30.07,West,279,12.7,12.7,88,0.00,CLR,SKC,0.00,WeatherDisplay:10.37,2013-03-24 04:20:00,
2013-03-23 23:25:00,27.6,24.5,30.07,West,266,11.7,11.7,88,0.00,CLR,SKC,0.00,WeatherDisplay:10.37,2013-03-24 04:25:00,
2013-03-23 23:30:00,27.6,24.5,30.08,West,266,10.4,10.4,88,0.00,CLR,SKC,0.00,WeatherDisplay:10.37,2013-03-24 04:30:00,
2013-03-23 23:35:00,27.7,24.6,30.08,West,273,9.5,9.5,88,0.00,CLR,SKC,0.00,WeatherDisplay:10.37,2013-03-24 04:35:00,
2013-03-23 23:40:00,27.7,24.6,30.08,NW,307,12.7,12.7,88,0.00,CLR,SKC,0.00,WeatherDisplay:10.37,2013-03-24 04:40:00,
2013-03-23 23:45:00,27.8,24.7,30.08,WNW,289,10.4,10.4,88,0.00,CLR,SKC,0.00,WeatherDisplay:10.37,2013-03-24 04:45:00,
2013-03-23 23:50:00,28.0,24.9,30.08,West,279,10.6,10.6,88,0.00,CLR,SKC,0.00,WeatherDisplay:10.37,2013-03-24 04:50:00,
2013-03-23 23:55:00,28.1,24.7,30.07,WNW,297,10.4,10.4,87,0.00,CLR,SKC,0.00,WeatherDisplay:10.37,2013-03-24 04:55:00,